METAR Data

Data at: 0641 UTC 01 Dec 2022

METAR for:LIPZ (Venice/Polo Arpt, VE, IT)
Text:LIPZ 010620Z 35005KT 330V030 9999 FEW025 05/01 Q1017 NOSIG
Temperature: 5.0°C ( 41°F)
Dewpoint: 1.0°C ( 34°F) [RH = 75%]
Pressure (altimeter):30.03 inches Hg (1017.0 mb)
Winds:from the N (350 degrees) at 6 MPH (5 knots; 2.6 m/s)
Visibility:6 or more sm (10+ km)
Ceiling:at least 12,000 feet AGL
Clouds: few clouds at 2500 feet AGL

TAF for:LIPZ (Venice/Polo Arpt, VE, IT) issued at 0500 UTC 01 Dec 2022
Text:TAF LIPZ 010500Z 0106/0212 01008KT CAVOK
Forecast period:0600 UTC 01 December 2022 to 1200 UTC 02 December 2022
Forecast type:FROM: standard forecast or significant change
Winds:from the N (10 degrees) at 9 MPH (8 knots; 4.1 m/s)
Visibility:6 or more sm (10+ km)
Clouds:missing
Weather:NSW (no significant weather)
Text:TEMPO 0200/0206 RA
Forecast period:0000 to 0600 UTC 02 December 2022
Forecast type:TEMPORARY: The following changes expected for less than half the time period
Clouds:missing
Weather:RA (moderate rain)